createdAt,value
2017-10-22T00:00:27.135Z,1011.15
2017-10-22T00:01:48.677Z,1011.14
2017-10-22T00:03:11.206Z,1011.13
2017-10-22T00:04:33.504Z,1011.1
2017-10-22T00:05:55.785Z,1011.14
2017-10-22T00:07:17.736Z,1011.12
2017-10-22T00:08:39.593Z,1011.11
2017-10-22T00:10:01.815Z,1011.12
2017-10-22T00:11:24.010Z,1011.07
2017-10-22T00:12:45.842Z,1011.1
2017-10-22T00:14:07.735Z,1011.05
2017-10-22T00:15:29.604Z,1011.08
2017-10-22T00:16:51.228Z,1011.08
2017-10-22T00:18:13.479Z,1011.08
2017-10-22T00:19:35.644Z,1011.07
2017-10-22T00:20:58.184Z,1011.04
2017-10-22T00:22:20.374Z,1011.02
2017-10-22T00:23:42.541Z,1011.07
2017-10-22T00:25:04.736Z,1011.02
2017-10-22T00:26:26.905Z,1011
2017-10-22T00:27:49.115Z,1010.98
2017-10-22T00:29:10.981Z,1011.01
2017-10-22T00:30:32.885Z,1010.99
2017-10-22T00:31:55.175Z,1010.98
2017-10-22T00:33:17.428Z,1010.99
2017-10-22T00:34:39.941Z,1010.97
2017-10-22T00:36:02.129Z,1010.98
2017-10-22T00:37:23.647Z,1010.95
2017-10-22T00:38:45.500Z,1010.89
2017-10-22T00:40:07.356Z,1010.93
2017-10-22T00:41:29.284Z,1010.92
2017-10-22T00:42:50.815Z,1010.93
2017-10-22T00:44:12.654Z,1010.92
2017-10-22T00:45:34.515Z,1010.93
2017-10-22T00:46:57.184Z,1010.93
2017-10-22T00:48:19.053Z,1010.9
2017-10-22T00:49:40.578Z,1010.87
2017-10-22T00:51:01.754Z,1010.9
2017-10-22T00:52:23.953Z,1010.89
2017-10-22T00:53:45.791Z,1010.86
2017-10-22T00:55:08.002Z,1010.87
2017-10-22T00:56:30.209Z,1010.87
2017-10-22T00:57:52.387Z,1010.8
2017-10-22T00:59:14.908Z,1010.83
2017-10-22T01:00:37.207Z,1010.85
2017-10-22T01:01:59.066Z,1010.81
2017-10-22T01:03:21.265Z,1010.8
2017-10-22T01:04:42.794Z,1010.79
2017-10-22T01:06:04.637Z,1010.8
2017-10-22T01:07:26.148Z,1010.76
2017-10-22T01:08:48.772Z,1010.75
2017-10-22T01:10:10.614Z,1010.75
2017-10-22T01:11:32.106Z,1010.71
2017-10-22T01:12:54.284Z,1010.7
2017-10-22T01:14:16.454Z,1010.67
2017-10-22T01:15:37.977Z,1010.72
2017-10-22T01:16:59.822Z,1010.66
2017-10-22T01:18:21.745Z,1010.67
2017-10-22T01:19:43.625Z,1010.64
2017-10-22T01:21:05.775Z,1010.65
2017-10-22T01:22:27.610Z,1010.63
2017-10-22T01:23:48.799Z,1010.64
2017-10-22T01:25:10.646Z,1010.64
2017-10-22T01:26:32.496Z,1010.67
2017-10-22T01:27:54.322Z,1010.63
2017-10-22T01:29:15.820Z,1010.68
2017-10-22T01:30:37.351Z,1010.59
2017-10-22T01:31:59.576Z,1010.68
2017-10-22T01:33:21.763Z,1010.59
2017-10-22T01:34:43.956Z,1010.58
2017-10-22T01:36:05.819Z,1010.6
2017-10-22T01:37:28.005Z,1010.56
2017-10-22T01:38:49.845Z,1010.48
2017-10-22T01:40:11.362Z,1010.54
2017-10-22T01:41:33.210Z,1010.52
2017-10-22T01:42:54.956Z,1010.5
2017-10-22T01:44:16.800Z,1010.48
2017-10-22T01:45:38.989Z,1010.46
2017-10-22T01:47:00.550Z,1010.47
2017-10-22T01:48:22.805Z,1010.41
2017-10-22T01:49:45.445Z,1010.46
2017-10-22T01:51:07.316Z,1010.44
2017-10-22T01:52:29.169Z,1010.41
2017-10-22T01:53:50.674Z,1010.35
2017-10-22T01:55:13.195Z,1010.36
2017-10-22T01:56:35.041Z,1010.35
2017-10-22T01:57:57.273Z,1010.28
2017-10-22T01:59:19.458Z,1010.32
2017-10-22T02:00:41.324Z,1010.29
2017-10-22T02:02:02.859Z,1010.3
2017-10-22T02:03:24.705Z,1010.27
2017-10-22T02:04:47.126Z,1010.26
2017-10-22T02:06:09.621Z,1010.29
2017-10-22T02:07:31.165Z,1010.21
2017-10-22T02:08:53.337Z,1010.25
2017-10-22T02:10:15.183Z,1010.27
2017-10-22T02:11:36.710Z,1010.3
2017-10-22T02:12:59.224Z,1010.33
2017-10-22T02:14:20.735Z,1010.33
2017-10-22T02:15:43.271Z,1010.33
2017-10-22T02:17:04.824Z,1010.32
2017-10-22T02:18:26.684Z,1010.34
2017-10-22T02:19:49.206Z,1010.35
2017-10-22T02:21:11.458Z,1010.33
2017-10-22T02:22:33.327Z,1010.35
2017-10-22T02:23:55.495Z,1010.4
2017-10-22T02:25:17.042Z,1010.37
2017-10-22T02:26:38.944Z,1010.41
2017-10-22T02:28:00.141Z,1010.38
2017-10-22T02:29:22.328Z,1010.38
2017-10-22T02:30:44.506Z,1010.38
2017-10-22T02:32:06.968Z,1010.39
2017-10-22T02:33:29.588Z,1010.39
2017-10-22T02:34:51.766Z,1010.39
2017-10-22T02:36:13.396Z,1010.34
2017-10-22T02:37:35.570Z,1010.36
2017-10-22T02:38:57.423Z,1010.32
2017-10-22T02:40:19.015Z,1010.35
2017-10-22T02:41:40.520Z,1010.35
2017-10-22T02:43:02.985Z,1010.35
2017-10-22T02:44:25.281Z,1010.33
2017-10-22T02:45:47.476Z,1010.33
2017-10-22T02:47:09.458Z,1010.34
2017-10-22T02:48:31.295Z,1010.3
2017-10-22T02:49:52.825Z,1010.32
2017-10-22T02:51:14.348Z,1010.27
2017-10-22T02:52:36.870Z,1010.27
2017-10-22T02:53:58.706Z,1010.27
2017-10-22T02:55:20.280Z,1010.25
2017-10-22T02:56:42.228Z,1010.27
2017-10-22T02:58:04.727Z,1010.22
2017-10-22T02:59:26.935Z,1010.22
2017-10-22T03:00:48.776Z,1010.24
2017-10-22T03:02:11.294Z,1010.22
2017-10-22T03:03:33.144Z,1010.17
2017-10-22T03:04:55.671Z,1010.23
2017-10-22T03:06:17.193Z,1010.2
2017-10-22T03:07:38.705Z,1010.2
2017-10-22T03:09:00.662Z,1010.23
2017-10-22T03:10:22.846Z,1010.22
2017-10-22T03:11:45.360Z,1010.19
2017-10-22T03:13:07.546Z,1010.19
2017-10-22T03:14:29.506Z,1010.19
2017-10-22T03:15:51.350Z,1010.17
2017-10-22T03:17:13.195Z,1010.17
2017-10-22T03:18:35.370Z,1010.17
2017-10-22T03:19:56.886Z,1010.17
2017-10-22T03:21:19.566Z,1010.17
2017-10-22T03:22:41.404Z,1010.2
2017-10-22T03:24:03.681Z,1010.18
2017-10-22T03:25:24.899Z,1010.21
2017-10-22T03:26:46.747Z,1010.23
2017-10-22T03:28:08.927Z,1010.21
2017-10-22T03:29:30.761Z,1010.15
2017-10-22T03:30:52.945Z,1010.18
2017-10-22T03:32:14.798Z,1010.16
2017-10-22T03:33:36.665Z,1010.15
2017-10-22T03:34:58.521Z,1010.17
2017-10-22T03:36:21.013Z,1010.15
2017-10-22T03:37:43.195Z,1010.13
2017-10-22T03:39:05.897Z,1010.15
2017-10-22T03:40:27.416Z,1010.15
2017-10-22T03:41:49.665Z,1010.14
2017-10-22T03:43:12.231Z,1010.14
2017-10-22T03:44:34.455Z,1010.13
2017-10-22T03:45:56.961Z,1010.08
2017-10-22T03:47:19.286Z,1010.08
2017-10-22T03:48:41.462Z,1010.09
2017-10-22T03:50:03.052Z,1010.12
2017-10-22T03:51:25.644Z,1010.08
2017-10-22T03:52:47.221Z,1010.1
2017-10-22T03:54:09.813Z,1010.1
2017-10-22T03:55:32.325Z,1010.11
2017-10-22T03:56:54.593Z,1010.08
2017-10-22T03:58:16.416Z,1010.08
2017-10-22T03:59:38.238Z,1010.04
2017-10-22T04:01:00.192Z,1010.08
2017-10-22T04:02:22.029Z,1010.07
2017-10-22T04:03:44.555Z,1010.04
2017-10-22T04:05:06.074Z,1010.02
2017-10-22T04:06:28.282Z,1010.01
2017-10-22T04:07:50.123Z,1010.04
2017-10-22T04:09:11.669Z,1010.05
2017-10-22T04:10:34.124Z,1010.03
2017-10-22T04:11:55.372Z,1010.02
2017-10-22T04:13:17.229Z,1010.03
2017-10-22T04:14:39.103Z,1009.97
2017-10-22T04:16:01.323Z,1009.98
2017-10-22T04:17:23.168Z,1009.99
2017-10-22T04:18:45.014Z,1010.03
2017-10-22T04:20:06.911Z,1009.98
2017-10-22T04:21:28.774Z,1009.98
2017-10-22T04:22:50.611Z,1009.96
2017-10-22T04:24:12.946Z,1009.92
2017-10-22T04:25:35.114Z,1009.93
2017-10-22T04:26:57.012Z,1009.94
2017-10-22T04:28:18.525Z,1009.86
2017-10-22T04:29:40.363Z,1009.9
2017-10-22T04:31:02.521Z,1009.95
2017-10-22T04:32:24.630Z,1009.93
2017-10-22T04:33:46.115Z,1009.95
2017-10-22T04:35:08.415Z,1009.94
2017-10-22T04:36:29.923Z,1009.92
2017-10-22T04:37:51.765Z,1009.95
2017-10-22T04:39:13.956Z,1009.95
2017-10-22T04:40:35.874Z,1009.86
2017-10-22T04:41:58.063Z,1009.84
2017-10-22T04:43:19.495Z,1009.84
2017-10-22T04:44:41.662Z,1009.79
2017-10-22T04:46:03.581Z,1009.72
2017-10-22T04:47:25.101Z,1009.76
2017-10-22T04:48:46.947Z,1009.77
2017-10-22T04:50:08.775Z,1009.75
2017-10-22T04:51:30.774Z,1009.74
2017-10-22T04:52:52.269Z,1009.77
2017-10-22T04:54:15.025Z,1009.72
2017-10-22T04:55:36.890Z,1009.69
2017-10-22T04:56:59.063Z,1009.7
2017-10-22T04:58:21.233Z,1009.73
2017-10-22T04:59:42.402Z,1009.64
2017-10-22T05:01:04.589Z,1009.67
2017-10-22T05:02:27.108Z,1009.64
2017-10-22T05:03:48.330Z,1009.66
2017-10-22T05:05:11.233Z,1009.62
2017-10-22T05:06:33.076Z,1009.64
2017-10-22T05:07:55.246Z,1009.63
2017-10-22T05:09:17.783Z,1009.58
2017-10-22T05:10:40.234Z,1009.61
2017-10-22T05:12:02.087Z,1009.58
2017-10-22T05:13:24.636Z,1009.59
2017-10-22T05:14:46.926Z,1009.6
2017-10-22T05:16:08.781Z,1009.63
2017-10-22T05:17:30.629Z,1009.6
2017-10-22T05:18:52.144Z,1009.57
2017-10-22T05:20:14.011Z,1009.59
2017-10-22T05:21:35.842Z,1009.6
2017-10-22T05:22:58.018Z,1009.62
2017-10-22T05:24:20.521Z,1009.6
2017-10-22T05:25:42.380Z,1009.57
2017-10-22T05:27:04.604Z,1009.57
2017-10-22T05:28:26.795Z,1009.58
2017-10-22T05:29:48.983Z,1009.54
2017-10-22T05:31:11.157Z,1009.52
2017-10-22T05:32:32.663Z,1009.5
2017-10-22T05:33:54.837Z,1009.51
2017-10-22T05:35:16.345Z,1009.49
2017-10-22T05:36:38.194Z,1009.49
2017-10-22T05:37:59.949Z,1009.46
2017-10-22T05:39:21.807Z,1009.48
2017-10-22T05:40:43.633Z,1009.5
2017-10-22T05:42:05.816Z,1009.46
2017-10-22T05:43:28.067Z,1009.49
2017-10-22T05:44:50.256Z,1009.47
2017-10-22T05:46:11.765Z,1009.47
2017-10-22T05:47:34.302Z,1009.45
2017-10-22T05:48:56.215Z,1009.45
2017-10-22T05:50:18.145Z,1009.42
2017-10-22T05:51:40.735Z,1009.4
2017-10-22T05:53:02.611Z,1009.46
2017-10-22T05:54:24.463Z,1009.44
2017-10-22T05:55:46.743Z,1009.43
2017-10-22T05:57:08.905Z,1009.48
2017-10-22T05:58:31.084Z,1009.47
2017-10-22T05:59:52.913Z,1009.4
2017-10-22T06:01:15.117Z,1009.44
2017-10-22T06:02:36.695Z,1009.49
2017-10-22T06:03:58.862Z,1009.43
2017-10-22T06:05:21.365Z,1009.44
2017-10-22T06:06:44.035Z,1009.42
2017-10-22T06:08:05.344Z,1009.52
2017-10-22T06:09:27.541Z,1009.48
2017-10-22T06:10:48.981Z,1009.46
2017-10-22T06:12:10.848Z,1009.44
2017-10-22T06:13:33.354Z,1009.49
2017-10-22T06:14:55.866Z,1009.47
2017-10-22T06:16:17.467Z,1009.51
2017-10-22T06:17:39.697Z,1009.44
2017-10-22T06:19:01.545Z,1009.44
2017-10-22T06:20:23.764Z,1009.42
2017-10-22T06:21:45.846Z,1009.48
2017-10-22T06:23:08.085Z,1009.48
2017-10-22T06:24:29.937Z,1009.46
2017-10-22T06:25:52.109Z,1009.5
2017-10-22T06:27:14.000Z,1009.5
2017-10-22T06:28:35.844Z,1009.51
2017-10-22T06:29:58.129Z,1009.51
2017-10-22T06:31:19.994Z,1009.47
2017-10-22T06:32:42.010Z,1009.44
2017-10-22T06:34:04.194Z,1009.5
2017-10-22T06:35:26.034Z,1009.5
2017-10-22T06:36:48.000Z,1009.5
2017-10-22T06:38:10.202Z,1009.49
2017-10-22T06:39:32.721Z,1009.5
2017-10-22T06:40:54.575Z,1009.5
2017-10-22T06:42:16.767Z,1009.47
2017-10-22T06:43:38.971Z,1009.47
2017-10-22T06:45:01.476Z,1009.43
2017-10-22T06:46:24.135Z,1009.43
2017-10-22T06:47:46.319Z,1009.39
2017-10-22T06:49:09.113Z,1009.37
2017-10-22T06:50:31.325Z,1009.41
2017-10-22T06:51:53.220Z,1009.35
2017-10-22T06:53:14.733Z,1009.3
2017-10-22T06:54:36.933Z,1009.26
2017-10-22T06:55:59.455Z,1009.26
2017-10-22T06:57:21.625Z,1009.29
2017-10-22T06:58:44.145Z,1009.28
2017-10-22T07:00:06.345Z,1009.29
2017-10-22T07:01:28.543Z,1009.31
2017-10-22T07:02:50.399Z,1009.38
2017-10-22T07:04:12.698Z,1009.34
2017-10-22T07:05:35.144Z,1009.32
2017-10-22T07:06:56.990Z,1009.31
2017-10-22T07:08:18.509Z,1009.31
2017-10-22T07:09:41.046Z,1009.22
2017-10-22T07:11:03.643Z,1009.23
2017-10-22T07:12:25.492Z,1009.26
2017-10-22T07:13:47.362Z,1009.24
2017-10-22T07:15:09.271Z,1009.22
2017-10-22T07:16:31.604Z,1009.24
2017-10-22T07:17:53.775Z,1009.22
2017-10-22T07:19:15.993Z,1009.21
2017-10-22T07:20:37.504Z,1009.19
2017-10-22T07:21:59.703Z,1009.22
2017-10-22T07:23:21.552Z,1009.23
2017-10-22T07:24:43.766Z,1009.24
2017-10-22T07:26:05.959Z,1009.24
2017-10-22T07:27:28.174Z,1009.23
2017-10-22T07:28:50.374Z,1009.24
2017-10-22T07:30:12.246Z,1009.22
2017-10-22T07:31:34.433Z,1009.27
2017-10-22T07:32:56.756Z,1009.22
2017-10-22T07:34:18.633Z,1009.21
2017-10-22T07:35:40.572Z,1009.25
2017-10-22T07:37:02.782Z,1009.27
2017-10-22T07:38:24.343Z,1009.25
2017-10-22T07:39:46.195Z,1009.3
2017-10-22T07:41:08.043Z,1009.29
2017-10-22T07:42:30.567Z,1009.29
2017-10-22T07:43:52.754Z,1009.32
2017-10-22T07:45:14.949Z,1009.33
2017-10-22T07:46:37.256Z,1009.31
2017-10-22T07:47:59.144Z,1009.27
2017-10-22T07:49:21.315Z,1009.32
2017-10-22T07:50:43.944Z,1009.33
2017-10-22T07:52:06.445Z,1009.32
2017-10-22T07:53:28.986Z,1009.27
2017-10-22T07:54:51.175Z,1009.32
2017-10-22T07:56:13.750Z,1009.33
2017-10-22T07:57:35.592Z,1009.36
2017-10-22T07:58:57.130Z,1009.32
2017-10-22T08:00:19.340Z,1009.31
2017-10-22T08:01:41.213Z,1009.28
2017-10-22T08:03:02.406Z,1009.23
2017-10-22T08:04:24.577Z,1009.28
2017-10-22T08:05:46.434Z,1009.25
2017-10-22T08:07:08.671Z,1009.22
2017-10-22T08:08:30.175Z,1009.27
2017-10-22T08:09:52.358Z,1009.29
2017-10-22T08:11:14.557Z,1009.31
2017-10-22T08:12:36.766Z,1009.26
2017-10-22T08:13:58.649Z,1009.19
2017-10-22T08:15:20.543Z,1009.2
2017-10-22T08:16:42.986Z,1009.24
2017-10-22T08:18:05.597Z,1009.19
2017-10-22T08:19:27.468Z,1009.25
2017-10-22T08:20:49.355Z,1009.27
2017-10-22T08:22:11.906Z,1009.3
2017-10-22T08:23:34.424Z,1009.26
2017-10-22T08:24:55.963Z,1009.31
2017-10-22T08:26:18.504Z,1009.34
2017-10-22T08:27:40.023Z,1009.31
2017-10-22T08:29:01.555Z,1009.36
2017-10-22T08:30:24.090Z,1009.34
2017-10-22T08:31:45.944Z,1009.38
2017-10-22T08:33:07.795Z,1009.27
2017-10-22T08:34:29.663Z,1009.35
2017-10-22T08:35:52.186Z,1009.35
2017-10-22T08:37:14.373Z,1009.29
2017-10-22T08:38:36.628Z,1009.26
2017-10-22T08:39:58.137Z,1009.3
2017-10-22T08:41:20.646Z,1009.36
2017-10-22T08:42:43.215Z,1009.32
2017-10-22T08:44:05.224Z,1009.26
2017-10-22T08:45:27.457Z,1009.22
2017-10-22T08:46:49.665Z,1009.23
2017-10-22T08:48:11.964Z,1009.29
2017-10-22T08:49:34.466Z,1009.21
2017-10-22T08:50:56.721Z,1009.22
2017-10-22T08:52:18.721Z,1009.21
2017-10-22T08:53:40.821Z,1009.24
2017-10-22T08:55:03.796Z,1009.26
2017-10-22T08:56:25.732Z,1009.26
2017-10-22T08:57:47.992Z,1009.26
2017-10-22T08:59:10.537Z,1009.24
2017-10-22T09:00:33.415Z,1009.3
2017-10-22T09:01:55.628Z,1009.26
2017-10-22T09:03:18.183Z,1009.3
2017-10-22T09:04:40.715Z,1009.32
2017-10-22T09:06:02.935Z,1009.32
2017-10-22T09:07:25.187Z,1009.28
2017-10-22T09:08:47.367Z,1009.23
2017-10-22T09:10:08.894Z,1009.31
2017-10-22T09:11:31.551Z,1009.29
2017-10-22T09:12:54.241Z,1009.26
2017-10-22T09:14:16.100Z,1009.28
2017-10-22T09:15:38.365Z,1009.25
2017-10-22T09:17:00.233Z,1009.2
2017-10-22T09:18:22.464Z,1009.29
2017-10-22T09:19:44.705Z,1009.25
2017-10-22T09:21:06.923Z,1009.26
2017-10-22T09:22:29.164Z,1009.28
2017-10-22T09:23:51.346Z,1009.29
2017-10-22T09:25:13.611Z,1009.29
2017-10-22T09:26:35.853Z,1009.3
2017-10-22T09:27:58.384Z,1009.27
2017-10-22T09:29:20.256Z,1009.23
2017-10-22T09:30:42.260Z,1009.3
2017-10-22T09:32:04.883Z,1009.32
2017-10-22T09:33:27.095Z,1009.27
2017-10-22T09:34:49.708Z,1009.25
2017-10-22T09:36:12.055Z,1009.27
2017-10-22T09:37:34.650Z,1009.3
2017-10-22T09:38:56.882Z,1009.26
2017-10-22T09:40:19.077Z,1009.29
2017-10-22T09:41:41.354Z,1009.33
2017-10-22T09:43:03.955Z,1009.29
2017-10-22T09:44:26.484Z,1009.3
2017-10-22T09:45:49.067Z,1009.31
2017-10-22T09:47:11.604Z,1009.26
2017-10-22T09:48:33.824Z,1009.24
2017-10-22T09:49:56.001Z,1009.26
2017-10-22T09:51:18.598Z,1009.35
2017-10-22T09:52:41.276Z,1009.32
2017-10-22T09:54:03.485Z,1009.27
2017-10-22T09:55:26.252Z,1009.24
2017-10-22T09:56:48.236Z,1009.28
2017-10-22T09:58:10.492Z,1009.27
2017-10-22T09:59:32.375Z,1009.3
2017-10-22T10:00:54.257Z,1009.3
2017-10-22T10:02:16.477Z,1009.31
2017-10-22T10:03:38.679Z,1009.28
2017-10-22T10:05:00.206Z,1009.29
2017-10-22T10:06:22.757Z,1009.32
2017-10-22T10:07:45.426Z,1009.31
2017-10-22T10:09:07.994Z,1009.31
2017-10-22T10:10:30.546Z,1009.31
2017-10-22T10:11:52.751Z,1009.25
2017-10-22T10:13:14.614Z,1009.27
2017-10-22T10:14:36.467Z,1009.34
2017-10-22T10:15:58.733Z,1009.32
2017-10-22T10:17:20.934Z,1009.28
2017-10-22T10:18:43.156Z,1009.27
2017-10-22T10:20:05.381Z,1009.28
2017-10-22T10:21:27.637Z,1009.26
2017-10-22T10:22:50.325Z,1009.3
2017-10-22T10:24:12.915Z,1009.28
2017-10-22T10:25:34.819Z,1009.27
2017-10-22T10:26:57.355Z,1009.24
2017-10-22T10:28:19.583Z,1009.25
2017-10-22T10:29:41.476Z,1009.19
2017-10-22T10:31:03.345Z,1009.24
2017-10-22T10:32:25.960Z,1009.25
2017-10-22T10:33:48.154Z,1009.25
2017-10-22T10:35:10.366Z,1009.25
2017-10-22T10:36:32.565Z,1009.29
2017-10-22T10:37:54.121Z,1009.27
2017-10-22T10:39:16.617Z,1009.21
2017-10-22T10:40:39.143Z,1009.23
2017-10-22T10:42:01.356Z,1009.25
2017-10-22T10:43:23.613Z,1009.27
2017-10-22T10:44:45.863Z,1009.25
2017-10-22T10:46:08.455Z,1009.26
2017-10-22T10:47:31.170Z,1009.29
2017-10-22T10:48:53.044Z,1009.28
2017-10-22T10:50:15.598Z,1009.26
2017-10-22T10:51:38.154Z,1009.29
2017-10-22T10:53:00.733Z,1009.29
2017-10-22T10:54:23.279Z,1009.3
2017-10-22T10:55:45.904Z,1009.3
2017-10-22T10:57:08.554Z,1009.3
2017-10-22T10:58:31.225Z,1009.25
2017-10-22T10:59:53.508Z,1009.26
2017-10-22T11:01:16.465Z,1009.26
2017-10-22T11:02:38.764Z,1009.26
2017-10-22T11:04:00.965Z,1009.29
2017-10-22T11:05:23.505Z,1009.28
2017-10-22T11:06:46.291Z,1009.33
2017-10-22T11:08:08.554Z,1009.35
2017-10-22T11:09:31.180Z,1009.34
2017-10-22T11:10:53.076Z,1009.37
2017-10-22T11:12:15.702Z,1009.37
2017-10-22T11:13:37.984Z,1009.38
2017-10-22T11:15:00.549Z,1009.32
2017-10-22T11:16:22.796Z,1009.4
2017-10-22T11:17:45.334Z,1009.4
2017-10-22T11:19:07.739Z,1009.35
2017-10-22T11:20:30.057Z,1009.35
2017-10-22T11:21:52.586Z,1009.36
2017-10-22T11:23:14.464Z,1009.36
2017-10-22T11:24:36.720Z,1009.36
2017-10-22T11:25:59.259Z,1009.37
2017-10-22T11:27:21.472Z,1009.35
2017-10-22T11:28:44.096Z,1009.33
2017-10-22T11:30:07.122Z,1009.38
2017-10-22T11:31:29.375Z,1009.42
2017-10-22T11:32:52.034Z,1009.39
2017-10-22T11:34:14.612Z,1009.35
2017-10-22T11:35:37.263Z,1009.36
2017-10-22T11:36:59.836Z,1009.38
2017-10-22T11:38:21.445Z,1009.39
2017-10-22T11:39:44.021Z,1009.41
2017-10-22T11:41:06.344Z,1009.4
2017-10-22T11:42:28.925Z,1009.38
2017-10-22T11:43:50.873Z,1009.39
2017-10-22T11:45:13.434Z,1009.38
2017-10-22T11:46:36.232Z,1009.41
2017-10-22T11:47:58.786Z,1009.4
2017-10-22T11:49:21.441Z,1009.44
2017-10-22T11:50:44.077Z,1009.35
2017-10-22T11:52:05.622Z,1009.39
2017-10-22T11:53:27.813Z,1009.42
2017-10-22T11:54:49.700Z,1009.45
2017-10-22T11:56:12.244Z,1009.42
2017-10-22T11:57:34.466Z,1009.44
2017-10-22T11:58:56.368Z,1009.4
2017-10-22T12:00:18.605Z,1009.37
2017-10-22T12:01:41.175Z,1009.41
2017-10-22T12:03:03.070Z,1009.46
2017-10-22T12:04:25.755Z,1009.46
2017-10-22T12:05:47.958Z,1009.45
2017-10-22T12:07:10.305Z,1009.5
2017-10-22T12:08:32.579Z,1009.48
2017-10-22T12:09:54.455Z,1009.48
2017-10-22T12:11:16.654Z,1009.5
2017-10-22T12:12:38.894Z,1009.45
2017-10-22T12:14:01.143Z,1009.47
2017-10-22T12:15:23.426Z,1009.51
2017-10-22T12:16:45.971Z,1009.47
2017-10-22T12:18:08.241Z,1009.51
2017-10-22T12:19:30.474Z,1009.54
2017-10-22T12:20:52.699Z,1009.5
2017-10-22T12:22:14.935Z,1009.53
2017-10-22T12:23:37.591Z,1009.56
2017-10-22T12:24:59.830Z,1009.48
2017-10-22T12:26:22.393Z,1009.53
2017-10-22T12:27:45.007Z,1009.57
2017-10-22T12:29:07.471Z,1009.54
2017-10-22T12:30:30.170Z,1009.62
2017-10-22T12:31:52.073Z,1009.62
2017-10-22T12:33:14.683Z,1009.63
2017-10-22T12:34:36.925Z,1009.57
2017-10-22T12:35:59.234Z,1009.57
2017-10-22T12:37:21.503Z,1009.6
2017-10-22T12:38:43.763Z,1009.57
2017-10-22T12:40:06.324Z,1009.54
2017-10-22T12:41:28.558Z,1009.54
2017-10-22T12:42:50.824Z,1009.57
2017-10-22T12:44:13.539Z,1009.52
2017-10-22T12:45:36.104Z,1009.5
2017-10-22T12:46:58.772Z,1009.51
2017-10-22T12:48:21.005Z,1009.5
2017-10-22T12:49:43.639Z,1009.58
2017-10-22T12:51:05.886Z,1009.61
2017-10-22T12:52:28.164Z,1009.59
2017-10-22T12:53:50.685Z,1009.57
2017-10-22T12:55:13.301Z,1009.59
2017-10-22T12:56:35.862Z,1009.6
2017-10-22T12:57:58.467Z,1009.59
2017-10-22T12:59:21.134Z,1009.55
2017-10-22T13:00:43.714Z,1009.56
2017-10-22T13:02:06.253Z,1009.53
2017-10-22T13:03:28.535Z,1009.53
2017-10-22T13:04:50.113Z,1009.56
2017-10-22T13:06:12.723Z,1009.63
2017-10-22T13:07:34.305Z,1009.59
2017-10-22T13:08:56.920Z,1009.6
2017-10-22T13:10:19.575Z,1009.59
2017-10-22T13:11:41.454Z,1009.6
2017-10-22T13:13:04.050Z,1009.61
2017-10-22T13:14:26.274Z,1009.6
2017-10-22T13:15:48.562Z,1009.63
2017-10-22T13:17:10.832Z,1009.64
2017-10-22T13:18:33.044Z,1009.64
2017-10-22T13:19:55.249Z,1009.63
2017-10-22T13:21:17.573Z,1009.69
2017-10-22T13:22:39.805Z,1009.68
2017-10-22T13:24:01.696Z,1009.64
2017-10-22T13:25:24.257Z,1009.66
2017-10-22T13:26:46.935Z,1009.73
2017-10-22T13:28:08.804Z,1009.71
2017-10-22T13:29:31.375Z,1009.8
2017-10-22T13:30:54.106Z,1009.75
2017-10-22T13:32:16.344Z,1009.74
2017-10-22T13:33:38.874Z,1009.76
2017-10-22T13:35:01.424Z,1009.72
2017-10-22T13:36:23.313Z,1009.81
2017-10-22T13:37:45.861Z,1009.84
2017-10-22T13:39:07.734Z,1009.8
2017-10-22T13:40:30.264Z,1009.78
2017-10-22T13:41:52.814Z,1009.77
2017-10-22T13:43:15.015Z,1009.75
2017-10-22T13:44:37.293Z,1009.79
2017-10-22T13:45:59.533Z,1009.73
2017-10-22T13:47:22.092Z,1009.73
2017-10-22T13:48:44.296Z,1009.75
2017-10-22T13:50:06.966Z,1009.75
2017-10-22T13:51:29.886Z,1009.75
2017-10-22T13:52:52.120Z,1009.8
2017-10-22T13:54:14.376Z,1009.82
2017-10-22T13:55:36.406Z,1009.84
2017-10-22T13:56:59.042Z,1009.86
2017-10-22T13:58:21.617Z,1009.84
2017-10-22T13:59:44.208Z,1009.87
2017-10-22T14:01:06.784Z,1009.92
2017-10-22T14:02:29.043Z,1009.92
2017-10-22T14:03:51.604Z,1009.93
2017-10-22T14:05:14.164Z,1009.93
2017-10-22T14:06:36.413Z,1009.96
2017-10-22T14:07:58.990Z,1009.94
2017-10-22T14:09:21.502Z,1009.96
2017-10-22T14:10:43.864Z,1010.01
2017-10-22T14:12:06.515Z,1009.99
2017-10-22T14:13:29.054Z,1010.02
2017-10-22T14:14:50.974Z,1010.01
2017-10-22T14:16:13.543Z,1010.04
2017-10-22T14:17:35.753Z,1010.07
2017-10-22T14:18:58.033Z,1010.08
2017-10-22T14:20:20.300Z,1010.02
2017-10-22T14:21:42.861Z,1010.09
2017-10-22T14:23:05.128Z,1010.17
2017-10-22T14:24:27.750Z,1010.21
2017-10-22T14:25:49.629Z,1010.24
2017-10-22T14:27:12.169Z,1010.26
2017-10-22T14:28:34.403Z,1010.29
2017-10-22T14:29:56.955Z,1010.29
2017-10-22T14:31:19.183Z,1010.29
2017-10-22T14:32:41.745Z,1010.32
2017-10-22T14:34:04.281Z,1010.34
2017-10-22T14:35:26.485Z,1010.35
2017-10-22T14:36:48.844Z,1010.34
2017-10-22T14:38:11.395Z,1010.37
2017-10-22T14:39:33.694Z,1010.34
2017-10-22T14:40:55.918Z,1010.36
2017-10-22T14:42:18.195Z,1010.29
2017-10-22T14:43:40.387Z,1010.33
2017-10-22T14:45:03.047Z,1010.31
2017-10-22T14:46:25.283Z,1010.39
2017-10-22T14:47:47.877Z,1010.35
2017-10-22T14:49:10.427Z,1010.39
2017-10-22T14:50:32.684Z,1010.36
2017-10-22T14:51:55.322Z,1010.36
2017-10-22T14:53:17.197Z,1010.4
2017-10-22T14:54:39.396Z,1010.39
2017-10-22T14:56:01.605Z,1010.45
2017-10-22T14:57:23.866Z,1010.51
2017-10-22T14:58:46.409Z,1010.49
2017-10-22T15:00:08.934Z,1010.5
2017-10-22T15:01:30.825Z,1010.5
2017-10-22T15:02:53.386Z,1010.54
2017-10-22T15:04:15.985Z,1010.52
2017-10-22T15:05:38.208Z,1010.5
2017-10-22T15:07:00.495Z,1010.54
2017-10-22T15:08:22.787Z,1010.49
2017-10-22T15:09:45.440Z,1010.5
2017-10-22T15:11:07.743Z,1010.5
2017-10-22T15:12:30.068Z,1010.52
2017-10-22T15:13:52.738Z,1010.54
2017-10-22T15:15:15.528Z,1010.54
2017-10-22T15:16:38.204Z,1010.54
2017-10-22T15:18:00.745Z,1010.51
2017-10-22T15:19:23.375Z,1010.62
2017-10-22T15:20:46.192Z,1010.65
2017-10-22T15:22:08.259Z,1010.69
2017-10-22T15:23:31.002Z,1010.69
2017-10-22T15:24:53.235Z,1010.74
2017-10-22T15:26:15.824Z,1010.74
2017-10-22T15:27:38.015Z,1010.77
2017-10-22T15:29:00.614Z,1010.78
2017-10-22T15:30:23.134Z,1010.79
2017-10-22T15:31:45.341Z,1010.8
2017-10-22T15:33:07.906Z,1010.8
2017-10-22T15:34:30.499Z,1010.82
2017-10-22T15:35:53.064Z,1010.81
2017-10-22T15:37:15.720Z,1010.88
2017-10-22T15:38:38.420Z,1010.84
2017-10-22T15:40:00.628Z,1010.83
2017-10-22T15:41:22.588Z,1010.81
2017-10-22T15:42:45.124Z,1010.87
2017-10-22T15:44:07.348Z,1010.86
2017-10-22T15:45:30.095Z,1010.83
2017-10-22T15:46:52.656Z,1010.87
2017-10-22T15:48:15.253Z,1010.85
2017-10-22T15:49:37.844Z,1010.83
2017-10-22T15:51:00.075Z,1010.89
2017-10-22T15:52:21.641Z,1010.85
2017-10-22T15:53:43.845Z,1010.81
2017-10-22T15:55:06.413Z,1010.86
2017-10-22T15:56:28.627Z,1010.85
2017-10-22T15:57:51.169Z,1010.86
2017-10-22T15:59:13.788Z,1010.84
2017-10-22T16:00:35.996Z,1010.83
2017-10-22T16:01:58.547Z,1010.84
2017-10-22T16:03:20.794Z,1010.83
2017-10-22T16:04:43.427Z,1010.83
2017-10-22T16:06:05.986Z,1010.84
2017-10-22T16:07:28.250Z,1010.87
2017-10-22T16:08:50.475Z,1010.88
2017-10-22T16:10:12.365Z,1010.9
2017-10-22T16:11:34.673Z,1010.96
2017-10-22T16:12:57.755Z,1010.92
2017-10-22T16:14:20.238Z,1010.94
2017-10-22T16:15:42.478Z,1010.99
2017-10-22T16:17:05.061Z,1011.01
2017-10-22T16:18:27.651Z,1011.02
2017-10-22T16:19:50.035Z,1011.02
2017-10-22T16:21:12.588Z,1011.01
2017-10-22T16:22:35.156Z,1011.06
2017-10-22T16:23:57.711Z,1011.05
2017-10-22T16:25:20.413Z,1011.1
2017-10-22T16:26:43.012Z,1011.09
2017-10-22T16:28:05.325Z,1011.11
2017-10-22T16:29:27.924Z,1011.12
2017-10-22T16:30:49.881Z,1011.16
2017-10-22T16:32:12.104Z,1011.13
2017-10-22T16:33:34.380Z,1011.13
2017-10-22T16:34:56.589Z,1011.15
2017-10-22T16:36:19.157Z,1011.2
2017-10-22T16:37:41.766Z,1011.25